createdAt,value
2017-08-16T00:01:56.198Z,51.90
2017-08-16T00:04:23.741Z,54.30
2017-08-16T00:06:52.093Z,55.07
2017-08-16T00:09:19.647Z,54.60
2017-08-16T00:11:47.177Z,55.23
2017-08-16T00:14:14.759Z,64.03
2017-08-16T00:16:42.293Z,70.03
2017-08-16T00:19:09.829Z,54.53
2017-08-16T00:21:37.419Z,54.77
2017-08-16T00:24:04.976Z,55.43
2017-08-16T00:26:32.536Z,58.33
2017-08-16T00:29:00.103Z,52.77
2017-08-16T00:31:27.647Z,58.50
2017-08-16T00:33:55.961Z,59.10
2017-08-16T00:36:23.550Z,71.83
2017-08-16T00:38:51.104Z,64.53
2017-08-16T00:41:18.638Z,57.20
2017-08-16T00:43:46.208Z,60.47
2017-08-16T00:46:13.741Z,69.00
2017-08-16T00:48:41.313Z,61.60
2017-08-16T00:51:08.903Z,59.73
2017-08-16T00:53:36.439Z,58.57
2017-08-16T00:56:04.006Z,65.17
2017-08-16T00:58:31.580Z,63.53
2017-08-16T01:00:59.141Z,71.73
2017-08-16T01:03:26.699Z,69.60
2017-08-16T01:05:54.258Z,63.17
2017-08-16T01:08:21.794Z,70.53
2017-08-16T01:10:50.327Z,70.33
2017-08-16T01:13:18.016Z,68.00
2017-08-16T01:15:46.397Z,63.67
2017-08-16T01:18:14.119Z,74.43
2017-08-16T01:20:41.680Z,64.00
2017-08-16T01:23:09.206Z,63.50
2017-08-16T01:25:37.518Z,68.23
2017-08-16T01:28:05.077Z,67.17
2017-08-16T01:30:32.613Z,67.73
2017-08-16T01:33:00.910Z,78.67
2017-08-16T01:35:28.472Z,78.07
2017-08-16T01:37:56.004Z,73.70
2017-08-16T01:40:24.338Z,68.27
2017-08-16T01:42:51.928Z,64.17
2017-08-16T01:45:19.466Z,78.93
2017-08-16T01:47:47.018Z,74.80
2017-08-16T01:50:14.592Z,78.80
2017-08-16T01:52:42.141Z,71.47
2017-08-16T01:55:09.683Z,76.87
2017-08-16T01:57:37.253Z,73.27
2017-08-16T02:00:04.797Z,81.03
2017-08-16T02:02:32.328Z,73.37
2017-08-16T02:04:59.928Z,86.13
2017-08-16T02:07:27.483Z,73.63
2017-08-16T02:09:55.044Z,75.30
2017-08-16T02:12:22.608Z,81.00
2017-08-16T02:14:50.149Z,70.73
2017-08-16T02:17:18.452Z,81.27
2017-08-16T02:19:46.018Z,80.50
2017-08-16T02:22:13.560Z,80.03
2017-08-16T02:24:41.880Z,80.40
2017-08-16T02:27:09.482Z,96.80
2017-08-16T02:29:37.040Z,90.10
2017-08-16T02:32:04.601Z,86.73
2017-08-16T02:34:32.173Z,75.80
2017-08-16T02:36:59.712Z,72.83
2017-08-16T02:39:27.253Z,71.90
2017-08-16T02:41:54.849Z,90.40
2017-08-16T02:44:22.393Z,80.30
2017-08-16T02:46:49.922Z,71.93
2017-08-16T02:49:17.504Z,75.67
2017-08-16T02:51:45.080Z,75.23
2017-08-16T02:54:12.641Z,76.20
2017-08-16T02:56:40.224Z,77.83
2017-08-16T02:59:07.773Z,75.93
2017-08-16T03:01:35.310Z,75.80
2017-08-16T03:04:02.887Z,80.83
2017-08-16T03:06:30.436Z,81.87
2017-08-16T03:08:57.972Z,85.63
2017-08-16T03:11:25.548Z,77.27
2017-08-16T03:13:53.085Z,87.33
2017-08-16T03:16:20.636Z,89.47
2017-08-16T03:18:48.987Z,80.57
2017-08-16T03:21:16.534Z,91.23
2017-08-16T03:23:44.078Z,83.80
2017-08-16T03:26:11.663Z,83.07
2017-08-16T03:28:39.207Z,78.93
2017-08-16T03:31:06.772Z,77.70
2017-08-16T03:33:34.340Z,91.03
2017-08-16T03:36:01.890Z,86.80
2017-08-16T03:38:29.451Z,101.20
2017-08-16T03:40:57.032Z,99.27
2017-08-16T03:43:24.575Z,93.60
2017-08-16T03:45:52.114Z,93.70
2017-08-16T03:48:19.698Z,87.33
2017-08-16T03:50:47.271Z,98.30
2017-08-16T03:53:14.848Z,102.30
2017-08-16T03:55:42.419Z,96.57
2017-08-16T03:58:09.963Z,99.87
2017-08-16T04:00:37.492Z,97.43
2017-08-16T04:03:05.052Z,89.87
2017-08-16T04:05:32.612Z,111.90
2017-08-16T04:08:00.156Z,109.95
2017-08-16T04:10:28.501Z,106.07
2017-08-16T04:12:56.067Z,98.20
2017-08-16T04:15:23.908Z,101.83
2017-08-16T04:17:51.515Z,96.63
2017-08-16T04:20:19.831Z,104.50
2017-08-16T04:22:47.376Z,110.33
2017-08-16T04:25:14.956Z,103.27
2017-08-16T04:27:42.500Z,108.80
2017-08-16T04:30:10.053Z,117.40
2017-08-16T04:32:38.389Z,113.23
2017-08-16T04:35:05.947Z,99.10
2017-08-16T04:37:33.510Z,102.93
2017-08-16T04:40:01.094Z,100.50
2017-08-16T04:42:28.628Z,98.90
2017-08-16T04:44:56.178Z,97.03
2017-08-16T04:47:23.764Z,106.83
2017-08-16T04:49:51.303Z,107.37
2017-08-16T04:52:18.867Z,104.37
2017-08-16T04:54:46.432Z,108.07
2017-08-16T04:57:13.993Z,98.87
2017-08-16T04:59:41.563Z,113.33
2017-08-16T05:02:09.152Z,97.90
2017-08-16T05:04:36.696Z,100.03
2017-08-16T05:07:04.394Z,102.17
2017-08-16T05:09:32.766Z,100.37
2017-08-16T05:12:00.330Z,94.37
2017-08-16T05:14:27.904Z,104.60
2017-08-16T05:16:56.225Z,83.17
2017-08-16T05:19:23.786Z,86.80
2017-08-16T05:21:51.340Z,96.73
2017-08-16T05:24:18.921Z,91.37
2017-08-16T05:26:46.512Z,86.47
2017-08-16T05:29:14.050Z,95.33
2017-08-16T05:31:41.664Z,80.30
2017-08-16T05:34:09.214Z,82.70
2017-08-16T05:36:37.522Z,86.70
2017-08-16T05:39:05.103Z,75.93
2017-08-16T05:41:32.633Z,80.90
2017-08-16T05:44:00.161Z,81.20
2017-08-16T05:46:27.756Z,81.50
2017-08-16T05:48:55.315Z,88.33
2017-08-16T05:51:23.637Z,72.97
2017-08-16T05:53:51.208Z,83.10
2017-08-16T05:56:18.739Z,81.40
2017-08-16T05:58:46.302Z,85.27
2017-08-16T06:01:13.880Z,92.77
2017-08-16T06:03:41.432Z,86.27
2017-08-16T06:06:08.969Z,80.77
2017-08-16T06:08:36.530Z,86.30
2017-08-16T06:11:04.087Z,83.73
2017-08-16T06:13:32.386Z,83.40
2017-08-16T06:15:59.971Z,79.50
2017-08-16T06:18:27.521Z,87.87
2017-08-16T06:20:55.078Z,77.53
2017-08-16T06:23:22.638Z,83.40
2017-08-16T06:25:50.184Z,65.10
2017-08-16T06:28:17.726Z,75.23
2017-08-16T06:30:45.298Z,78.27
2017-08-16T06:33:12.832Z,82.57
2017-08-16T06:35:40.374Z,81.70
2017-08-16T06:38:07.937Z,75.83
2017-08-16T06:40:35.491Z,78.87
2017-08-16T06:43:03.031Z,73.73
2017-08-16T06:45:31.128Z,67.27
2017-08-16T06:47:58.665Z,74.40
2017-08-16T06:50:26.216Z,76.27
2017-08-16T06:52:53.780Z,75.13
2017-08-16T06:55:21.304Z,69.13
2017-08-16T06:57:48.841Z,72.03
2017-08-16T07:00:16.425Z,66.47
2017-08-16T07:02:43.971Z,83.10
2017-08-16T07:05:11.531Z,73.87
2017-08-16T07:07:39.089Z,69.93
2017-08-16T07:10:06.634Z,58.93
2017-08-16T07:12:34.173Z,69.13
2017-08-16T07:15:01.732Z,67.10
2017-08-16T07:17:29.273Z,65.87
2017-08-16T07:19:57.589Z,62.37
2017-08-16T07:22:25.158Z,65.47
2017-08-16T07:24:52.684Z,60.30
2017-08-16T07:27:20.226Z,78.47
2017-08-16T07:29:47.813Z,65.97
2017-08-16T07:32:15.349Z,62.90
2017-08-16T07:34:42.887Z,60.77
2017-08-16T07:37:10.459Z,63.27
2017-08-16T07:39:38.011Z,62.03
2017-08-16T07:42:05.570Z,65.97
2017-08-16T07:44:33.142Z,68.03
2017-08-16T07:47:00.716Z,70.80
2017-08-16T07:49:28.291Z,72.00
2017-08-16T07:51:56.634Z,64.43
2017-08-16T07:54:24.204Z,61.70
2017-08-16T07:56:51.741Z,57.83
2017-08-16T07:59:19.332Z,54.83
2017-08-16T08:01:46.865Z,72.10
2017-08-16T08:04:14.419Z,52.80
2017-08-16T08:06:41.991Z,55.70
2017-08-16T08:09:09.534Z,70.27
2017-08-16T08:11:37.087Z,59.47
2017-08-16T08:14:04.682Z,54.50
2017-08-16T08:16:32.226Z,52.23
2017-08-16T08:18:59.772Z,52.13
2017-08-16T08:21:27.364Z,47.63
2017-08-16T08:23:54.925Z,53.83
2017-08-16T08:26:22.468Z,49.60
2017-08-16T08:28:50.055Z,55.63
2017-08-16T08:31:17.589Z,51.73
2017-08-16T08:33:45.147Z,50.87
2017-08-16T08:36:12.735Z,50.20
2017-08-16T08:38:40.287Z,49.87
2017-08-16T08:41:07.821Z,45.40
2017-08-16T08:43:35.395Z,55.00
2017-08-16T08:46:02.924Z,44.20
2017-08-16T08:48:30.485Z,47.47
2017-08-16T08:50:58.837Z,49.93
2017-08-16T08:53:26.396Z,51.00
2017-08-16T08:55:53.925Z,46.83
2017-08-16T08:58:21.514Z,52.27
2017-08-16T09:00:49.056Z,42.27
2017-08-16T09:03:16.606Z,37.30
2017-08-16T09:05:44.185Z,44.40
2017-08-16T09:08:11.725Z,35.47
2017-08-16T09:10:39.277Z,35.83
2017-08-16T09:13:06.837Z,39.20
2017-08-16T09:15:34.378Z,40.80
2017-08-16T09:18:01.934Z,38.53
2017-08-16T09:20:29.527Z,42.27
2017-08-16T09:22:57.821Z,43.87
2017-08-16T09:25:25.352Z,40.37
2017-08-16T09:27:53.700Z,38.93
2017-08-16T09:30:21.251Z,31.40
2017-08-16T09:32:48.831Z,34.23
2017-08-16T09:35:16.392Z,21.70
2017-08-16T09:37:43.948Z,18.10
2017-08-16T09:40:11.473Z,17.17
2017-08-16T09:42:39.039Z,28.30
2017-08-16T09:45:06.633Z,18.30
2017-08-16T09:47:34.173Z,31.50
2017-08-16T09:50:01.749Z,19.50
2017-08-16T09:52:29.279Z,19.20
2017-08-16T09:54:56.827Z,25.07
2017-08-16T09:57:24.407Z,23.00
2017-08-16T09:59:51.954Z,21.63
2017-08-16T10:02:19.495Z,19.70
2017-08-16T10:04:47.850Z,26.23
2017-08-16T10:07:15.405Z,26.23
2017-08-16T10:09:42.967Z,29.70
2017-08-16T10:12:10.564Z,21.60
2017-08-16T10:14:38.889Z,21.27
2017-08-16T10:17:06.444Z,22.33
2017-08-16T10:19:34.010Z,19.33
2017-08-16T10:22:01.549Z,24.43
2017-08-16T10:24:29.164Z,22.67
2017-08-16T10:26:56.752Z,22.80
2017-08-16T10:29:25.059Z,21.80
2017-08-16T10:31:52.595Z,20.17
2017-08-16T10:34:20.946Z,22.00
2017-08-16T10:36:48.479Z,18.80
2017-08-16T10:39:22.013Z,17.93
2017-08-16T10:41:49.555Z,19.40
2017-08-16T10:44:17.111Z,15.33
2017-08-16T10:46:44.673Z,18.23
2017-08-16T10:49:12.217Z,15.80
2017-08-16T10:51:39.772Z,15.80
2017-08-16T10:54:07.354Z,16.60
2017-08-16T10:56:34.885Z,13.20
2017-08-16T10:59:02.453Z,16.90
2017-08-16T11:01:30.016Z,16.50
2017-08-16T11:03:57.598Z,12.33
2017-08-16T11:06:25.141Z,13.73
2017-08-16T11:08:52.728Z,11.23
2017-08-16T11:11:20.277Z,20.50
2017-08-16T11:13:47.835Z,11.23
2017-08-16T11:16:16.543Z,15.60
2017-08-16T11:18:44.099Z,11.80
2017-08-16T11:21:11.658Z,14.13
2017-08-16T11:23:39.230Z,12.47
2017-08-16T11:26:06.769Z,13.30
2017-08-16T11:28:34.309Z,11.60
2017-08-16T11:31:02.648Z,12.17
2017-08-16T11:33:30.182Z,17.47
2017-08-16T11:35:57.725Z,17.10
2017-08-16T11:38:25.289Z,11.27
2017-08-16T11:40:52.854Z,14.60
2017-08-16T11:43:20.387Z,9.90
2017-08-16T11:45:49.162Z,13.03
2017-08-16T11:48:16.729Z,13.87
2017-08-16T11:50:44.262Z,12.53
2017-08-16T11:53:11.832Z,13.47
2017-08-16T11:55:39.376Z,21.27
2017-08-16T11:58:06.930Z,10.23
2017-08-16T12:00:34.520Z,14.00
2017-08-16T12:03:02.130Z,8.20
2017-08-16T12:05:29.688Z,8.63
2017-08-16T12:07:57.262Z,12.40
2017-08-16T12:10:24.793Z,11.83
2017-08-16T12:12:53.097Z,13.60
2017-08-16T12:15:20.697Z,10.70
2017-08-16T12:17:48.229Z,10.50
2017-08-16T12:20:15.771Z,13.13
2017-08-16T12:22:44.098Z,8.73
2017-08-16T12:25:11.656Z,12.23
2017-08-16T12:27:39.186Z,8.23
2017-08-16T12:30:06.762Z,12.23
2017-08-16T12:32:34.289Z,8.87
2017-08-16T12:35:02.679Z,12.00
2017-08-16T12:37:31.001Z,8.90
2017-08-16T12:39:58.536Z,10.10
2017-08-16T12:42:26.072Z,9.37
2017-08-16T12:44:54.424Z,9.53
2017-08-16T12:47:21.976Z,11.07
2017-08-16T12:49:49.521Z,14.23
2017-08-16T12:52:17.109Z,10.00
2017-08-16T12:54:44.649Z,9.20
2017-08-16T12:57:12.207Z,11.03
2017-08-16T12:59:39.774Z,9.27
2017-08-16T13:02:07.331Z,15.83
2017-08-16T13:04:34.907Z,12.43
2017-08-16T13:07:02.498Z,9.63
2017-08-16T13:09:30.044Z,8.97
2017-08-16T13:11:57.581Z,10.30
2017-08-16T13:14:25.155Z,8.87
2017-08-16T13:16:52.682Z,11.60
2017-08-16T13:19:20.226Z,9.40
2017-08-16T13:21:48.557Z,8.40
2017-08-16T13:24:16.085Z,8.20
2017-08-16T13:26:43.630Z,9.57
2017-08-16T13:29:11.202Z,8.77
2017-08-16T13:31:38.758Z,10.00
2017-08-16T13:34:06.307Z,8.40
2017-08-16T13:36:34.630Z,8.93
2017-08-16T13:39:02.184Z,11.33
2017-08-16T13:41:29.719Z,10.57
2017-08-16T13:43:57.264Z,9.90
2017-08-16T13:46:25.577Z,9.83
2017-08-16T13:48:53.100Z,14.90
2017-08-16T13:51:20.662Z,8.03
2017-08-16T13:53:48.193Z,11.40
2017-08-16T13:56:15.743Z,11.23
2017-08-16T13:58:43.313Z,13.20
2017-08-16T14:01:10.861Z,13.50
2017-08-16T14:03:38.422Z,13.70
2017-08-16T14:06:05.990Z,12.70
2017-08-16T14:08:33.530Z,11.87
2017-08-16T14:11:01.061Z,10.23
2017-08-16T14:13:29.393Z,13.40
2017-08-16T14:15:56.944Z,12.60
2017-08-16T14:18:24.487Z,10.17
2017-08-16T14:20:52.080Z,10.80
2017-08-16T14:23:19.620Z,15.53
2017-08-16T14:25:48.005Z,9.53
2017-08-16T14:28:15.597Z,12.20
2017-08-16T14:30:43.124Z,11.33
2017-08-16T14:33:10.649Z,12.63
2017-08-16T14:35:39.437Z,11.83
2017-08-16T14:38:07.760Z,13.43
2017-08-16T14:40:35.319Z,11.00
2017-08-16T14:43:02.905Z,10.97
2017-08-16T14:45:30.457Z,14.67
2017-08-16T14:47:57.996Z,9.00
2017-08-16T14:50:25.584Z,9.40
2017-08-16T14:52:53.128Z,8.93
2017-08-16T14:55:20.666Z,11.13
2017-08-16T14:57:49.294Z,7.90
2017-08-16T15:00:16.845Z,10.73
2017-08-16T15:02:44.387Z,6.93
2017-08-16T15:05:11.955Z,9.60
2017-08-16T15:07:39.521Z,9.57
2017-08-16T15:10:07.500Z,8.77
2017-08-16T15:12:35.081Z,10.83
2017-08-16T15:15:02.874Z,7.83
2017-08-16T15:17:30.423Z,13.30
2017-08-16T15:19:57.992Z,9.90
2017-08-16T15:22:25.588Z,9.53
2017-08-16T15:24:53.910Z,8.53
2017-08-16T15:27:21.481Z,8.20
2017-08-16T15:29:49.039Z,10.00
2017-08-16T15:32:16.570Z,8.13
2017-08-16T15:34:44.151Z,15.63
2017-08-16T15:37:11.704Z,8.13
2017-08-16T15:39:39.252Z,8.87
2017-08-16T15:42:06.813Z,9.77
2017-08-16T15:44:34.350Z,8.07
2017-08-16T15:47:02.651Z,8.33
2017-08-16T15:49:30.210Z,9.43
2017-08-16T15:51:57.744Z,8.67
2017-08-16T15:54:25.282Z,8.87
2017-08-16T15:56:52.851Z,9.07
2017-08-16T15:59:20.378Z,13.50
2017-08-16T16:01:47.941Z,8.80
2017-08-16T16:04:15.558Z,10.57
2017-08-16T16:06:43.882Z,11.23
2017-08-16T16:09:11.428Z,12.80
2017-08-16T16:11:38.992Z,15.80
2017-08-16T16:14:06.539Z,10.63
2017-08-16T16:16:34.852Z,11.00
2017-08-16T16:19:02.426Z,10.00
2017-08-16T16:21:29.967Z,8.17
2017-08-16T16:23:57.516Z,10.70
2017-08-16T16:26:25.076Z,8.43
2017-08-16T16:28:52.627Z,8.80
2017-08-16T16:31:20.161Z,8.17
2017-08-16T16:33:47.739Z,8.37
2017-08-16T16:36:15.288Z,10.73
2017-08-16T16:38:43.593Z,17.37
2017-08-16T16:41:11.515Z,9.67
2017-08-16T16:43:39.051Z,12.77
2017-08-16T16:46:06.574Z,13.83
2017-08-16T16:48:34.928Z,14.57
2017-08-16T16:51:02.462Z,10.00
2017-08-16T16:53:30.003Z,9.00
2017-08-16T16:55:57.577Z,9.07
2017-08-16T16:58:25.108Z,10.80
2017-08-16T17:00:52.672Z,12.47
2017-08-16T17:03:20.260Z,10.60
2017-08-16T17:05:47.808Z,12.23
2017-08-16T17:08:15.336Z,11.87
2017-08-16T17:10:42.914Z,8.43
2017-08-16T17:13:11.208Z,9.30
2017-08-16T17:15:38.754Z,8.30
2017-08-16T17:18:07.098Z,11.30
2017-08-16T17:20:34.631Z,8.47
2017-08-16T17:23:02.170Z,8.10
2017-08-16T17:25:29.808Z,9.20
2017-08-16T17:27:58.100Z,8.20
2017-08-16T17:30:26.396Z,10.87
2017-08-16T17:32:53.992Z,8.07
2017-08-16T17:35:21.517Z,8.20
2017-08-16T17:37:49.040Z,8.70
2017-08-16T17:40:16.630Z,8.50
2017-08-16T17:42:44.944Z,9.10
2017-08-16T17:45:12.614Z,13.00
2017-08-16T17:47:40.192Z,9.00
2017-08-16T17:50:07.723Z,9.10
2017-08-16T17:52:35.267Z,9.77
2017-08-16T17:55:02.878Z,9.30
2017-08-16T17:57:30.446Z,10.20
2017-08-16T17:59:57.996Z,9.70
2017-08-16T18:02:25.553Z,16.63
2017-08-16T18:04:53.105Z,10.87
2017-08-16T18:07:20.707Z,9.57
2017-08-16T18:09:48.415Z,7.37
2017-08-16T18:12:15.965Z,8.00
2017-08-16T18:14:43.509Z,9.10
2017-08-16T18:17:11.851Z,8.67
2017-08-16T18:19:39.397Z,12.33
2017-08-16T18:22:06.943Z,9.33
2017-08-16T18:24:34.522Z,9.37
2017-08-16T18:27:02.069Z,13.63
2017-08-16T18:29:29.627Z,8.77
2017-08-16T18:31:57.208Z,7.93
2017-08-16T18:34:24.743Z,11.17
2017-08-16T18:36:52.277Z,9.40
2017-08-16T18:39:20.596Z,9.57
2017-08-16T18:41:48.143Z,8.90
2017-08-16T18:44:15.694Z,8.93
2017-08-16T18:46:44.025Z,12.07
2017-08-16T18:49:11.556Z,8.20
2017-08-16T18:51:39.098Z,10.03
2017-08-16T18:54:07.447Z,10.13
2017-08-16T18:56:34.975Z,8.20
2017-08-16T18:59:02.506Z,6.67
2017-08-16T19:01:30.076Z,8.90
2017-08-16T19:03:57.619Z,8.57
2017-08-16T19:06:25.927Z,9.30
2017-08-16T19:08:53.496Z,10.43
2017-08-16T19:11:21.025Z,7.27
2017-08-16T19:13:49.322Z,7.17
2017-08-16T19:16:16.881Z,9.67
2017-08-16T19:18:44.417Z,11.40
2017-08-16T19:21:12.718Z,8.10
2017-08-16T19:23:40.282Z,8.63
2017-08-16T19:26:07.817Z,11.80
2017-08-16T19:28:36.133Z,14.27
2017-08-16T19:31:03.707Z,14.93
2017-08-16T19:33:31.229Z,5.80
2017-08-16T19:35:59.538Z,9.77
2017-08-16T19:38:27.093Z,6.50
2017-08-16T19:40:54.648Z,11.60
2017-08-16T19:43:22.196Z,7.03
2017-08-16T19:45:50.579Z,9.97
2017-08-16T19:48:18.129Z,7.33
2017-08-16T19:50:46.441Z,9.80
2017-08-16T19:53:13.997Z,7.90
2017-08-16T19:55:41.564Z,7.57
2017-08-16T19:58:09.093Z,7.80
2017-08-16T20:00:37.438Z,15.63
2017-08-16T20:03:04.984Z,9.67
2017-08-16T20:05:32.526Z,15.73
2017-08-16T20:08:00.094Z,9.13
2017-08-16T20:10:27.620Z,9.70
2017-08-16T20:12:55.145Z,8.37
2017-08-16T20:15:22.695Z,6.33
2017-08-16T20:17:50.267Z,8.93
2017-08-16T20:20:17.793Z,8.03
2017-08-16T20:22:45.354Z,7.63
2017-08-16T20:25:12.902Z,9.13
2017-08-16T20:27:41.202Z,14.43
2017-08-16T20:30:08.776Z,20.13
2017-08-16T20:32:36.423Z,10.40
2017-08-16T20:35:03.955Z,9.20
2017-08-16T20:37:32.302Z,18.17
2017-08-16T20:39:59.834Z,7.40
2017-08-16T20:42:27.366Z,10.03
2017-08-16T20:44:54.944Z,14.10
2017-08-16T20:47:22.471Z,9.70
2017-08-16T20:49:50.014Z,9.43
2017-08-16T20:52:17.578Z,10.07
2017-08-16T20:54:45.118Z,6.67
2017-08-16T20:57:12.669Z,6.63
2017-08-16T20:59:40.219Z,8.37
2017-08-16T21:02:07.745Z,8.97
2017-08-16T21:04:36.060Z,11.20
2017-08-16T21:07:03.689Z,8.00
2017-08-16T21:09:32.008Z,6.47
2017-08-16T21:11:59.542Z,9.47
2017-08-16T21:14:27.879Z,9.57
2017-08-16T21:16:55.404Z,8.93
2017-08-16T21:19:22.929Z,20.90
2017-08-16T21:21:51.254Z,7.93
2017-08-16T21:24:18.805Z,15.17
2017-08-16T21:26:46.331Z,9.03
2017-08-16T21:29:14.654Z,13.03
2017-08-16T21:31:42.197Z,8.03
2017-08-16T21:34:09.725Z,7.40
2017-08-16T21:36:37.286Z,8.20
2017-08-16T21:39:04.825Z,13.30
2017-08-16T21:41:32.345Z,7.67
2017-08-16T21:43:59.906Z,9.27
2017-08-16T21:46:27.452Z,9.93
2017-08-16T21:48:55.764Z,6.70
2017-08-16T21:51:23.329Z,8.00
2017-08-16T21:53:50.871Z,5.93
2017-08-16T21:56:18.427Z,18.10
2017-08-16T21:58:46.029Z,10.73
2017-08-16T22:01:13.552Z,11.30
2017-08-16T22:03:41.104Z,10.33
2017-08-16T22:06:09.443Z,10.33
2017-08-16T22:08:36.975Z,7.70
2017-08-16T22:11:04.525Z,11.43
2017-08-16T22:13:32.129Z,11.93
2017-08-16T22:15:59.661Z,9.53
2017-08-16T22:18:27.192Z,11.00
2017-08-16T22:20:55.512Z,10.37
2017-08-16T22:23:23.056Z,10.77
2017-08-16T22:25:50.585Z,11.63
2017-08-16T22:28:18.908Z,7.97
2017-08-16T22:30:46.475Z,12.93
2017-08-16T22:33:13.998Z,6.20
2017-08-16T22:35:42.339Z,9.30
2017-08-16T22:38:09.879Z,8.70
2017-08-16T22:40:37.400Z,7.33
2017-08-16T22:43:05.735Z,8.03
2017-08-16T22:45:33.272Z,9.77
2017-08-16T22:48:00.823Z,12.63
2017-08-16T22:50:28.397Z,12.03
2017-08-16T22:52:56.005Z,10.33
2017-08-16T22:55:23.546Z,8.40
2017-08-16T22:57:51.120Z,13.73
2017-08-16T23:00:18.646Z,11.93
2017-08-16T23:02:46.167Z,8.53
2017-08-16T23:05:14.497Z,12.10
2017-08-16T23:07:42.039Z,11.23
2017-08-16T23:10:09.582Z,14.33
2017-08-16T23:12:37.166Z,15.43
2017-08-16T23:15:04.698Z,10.30
2017-08-16T23:17:32.989Z,8.87
2017-08-16T23:20:00.558Z,7.93
2017-08-16T23:22:28.092Z,12.33
2017-08-16T23:24:56.386Z,10.67
2017-08-16T23:27:23.962Z,8.70
2017-08-16T23:29:51.494Z,9.40
2017-08-16T23:32:19.815Z,13.77
2017-08-16T23:34:47.370Z,8.67
2017-08-16T23:37:14.902Z,10.90
2017-08-16T23:39:43.202Z,9.63
2017-08-16T23:42:10.775Z,9.53
2017-08-16T23:44:38.334Z,11.50
2017-08-16T23:47:05.862Z,13.97
2017-08-16T23:49:34.185Z,8.27
2017-08-16T23:52:01.708Z,12.53
2017-08-16T23:54:30.024Z,14.20
2017-08-16T23:56:57.598Z,10.20
2017-08-16T23:59:25.147Z,15.00
